Fort Simpson Airport
CYFS : now visible

Airfield :











YOU CAN JOIN US ON...

 
LOGIN :

Register | Disclaimer

   EN    FR    IT 

 









Legend :    VFR   Marginal VFR   IFR   Intensive IFR   Very Intensive IFR
Visi :
Ceiling :
>= 8 km
>= 3000ft
5 to 8 km
1000 to 3000 ft
1500m to 5 km
500 to 1000 ft
800 to 1500m
200 to 500 ft
< 800m
< 200 ft
Symbols :   Thunderstorms  Fog  Heavy snow  Heavy precipitations  Wind > 20 kt






- Airport Elevation : 555 ft
- IATA code : YFS


CYFS - Fort Simpson

CURRENT METAR :
  • 280200Z 01004KT 330V050 15SM SCT080 BKN120 BKN210 17/02 A3016 RMK AC4AC1CI1 SLP220 DENSITY ALT 700FT

EXPIRED METARs :
  • 280100Z 32006KT 310V070 15SM SCT077 BKN240 17/01 A3015 RMK AC5CI1 SLP218 DENSITY ALT 700FT
  • 280000Z 34007KT 300V020 15SM BKN078 BKN096 BKN250 17/02 A3015 RMK AC5AC2CI1 CI TR SLP218 DENSITY ALT 700FT

TAF TAF CYFS
Valid from the 28 at 00:00 until the 28 at 12:00 UTC


272338Z 2800/2812 32007KT P6SM SCT080 BKN120
TEMPO 2800/2801 BKN080
FM280500 33007KT P6SM SCT080 RMK NXT FCST BY 280600Z
CZEG FIR / North America



MET'MAP, your aeronautical weather chart ! - Copyright ORBIFLY December 2007 - Disclaimer

ORBIFLY MET'MAP TEAM :

Programming & Development : Alexandra Zaïnal
Concept & original design : Baudouin d'Aumeries
Assistance for programming : Marc-Olivier Méhu
Technical & hardware support : Manuel Goepfert

Contact : metmap@orbifly.com




SOURCES & CREDITS :

   NOAA       Earth
Advisory